sensor_id;sensor_type;location;lat;lon;timestamp;pressure;altitude;pressure_sealevel;temperature;humidity
51195;BME280;37259;49.972;19.850;2023-02-19T00:00:43;98510;;;7.6;89.1
51195;BME280;37259;49.972;19.850;2023-02-19T00:01:44;98510;;;7.6;89.3
51195;BME280;37259;49.972;19.850;2023-02-19T00:02:43;98510;;;7.6;89.3
51195;BME280;37259;49.972;19.850;2023-02-19T00:03:46;98510;;;7.5;89.4
51195;BME280;37259;49.972;19.850;2023-02-19T00:04:43;98510;;;7.5;89.4
51195;BME280;37259;49.972;19.850;2023-02-19T00:05:43;98510;;;7.5;89.4
51195;BME280;37259;49.972;19.850;2023-02-19T00:06:44;98510;;;7.5;89.4
51195;BME280;37259;49.972;19.850;2023-02-19T00:07:43;98510;;;7.5;89.4
51195;BME280;37259;49.972;19.850;2023-02-19T00:08:43;98510;;;7.5;89.5
51195;BME280;37259;49.972;19.850;2023-02-19T00:09:43;98510;;;7.5;89.5
51195;BME280;37259;49.972;19.850;2023-02-19T00:10:43;98510;;;7.5;89.5
51195;BME280;37259;49.972;19.850;2023-02-19T00:11:43;98510;;;7.5;89.5
51195;BME280;37259;49.972;19.850;2023-02-19T00:12:43;98510;;;7.5;89.5
51195;BME280;37259;49.972;19.850;2023-02-19T00:13:44;98500;;;7.5;89.6
51195;BME280;37259;49.972;19.850;2023-02-19T00:14:43;98500;;;7.5;89.6
51195;BME280;37259;49.972;19.850;2023-02-19T00:15:43;98500;;;7.5;89.7
51195;BME280;37259;49.972;19.850;2023-02-19T00:16:43;98500;;;7.5;89.6
51195;BME280;37259;49.972;19.850;2023-02-19T00:17:43;98500;;;7.5;89.6
51195;BME280;37259;49.972;19.850;2023-02-19T00:18:43;98500;;;7.5;89.6
51195;BME280;37259;49.972;19.850;2023-02-19T00:19:43;98500;;;7.5;89.6
51195;BME280;37259;49.972;19.850;2023-02-19T00:20:43;98500;;;7.5;89.6
51195;BME280;37259;49.972;19.850;2023-02-19T00:21:43;98510;;;7.5;89.6
51195;BME280;37259;49.972;19.850;2023-02-19T00:22:43;98510;;;7.5;89.6
51195;BME280;37259;49.972;19.850;2023-02-19T00:23:46;98510;;;7.5;89.6
51195;BME280;37259;49.972;19.850;2023-02-19T00:24:43;98510;;;7.4;89.6
51195;BME280;37259;49.972;19.850;2023-02-19T00:25:43;98510;;;7.4;89.6
51195;BME280;37259;49.972;19.850;2023-02-19T00:26:44;98510;;;7.4;89.7
51195;BME280;37259;49.972;19.850;2023-02-19T00:27:43;98520;;;7.4;89.7
51195;BME280;37259;49.972;19.850;2023-02-19T00:28:43;98520;;;7.4;89.7
51195;BME280;37259;49.972;19.850;2023-02-19T00:29:43;98510;;;7.4;89.8
51195;BME280;37259;49.972;19.850;2023-02-19T00:30:43;98510;;;7.3;89.8
51195;BME280;37259;49.972;19.850;2023-02-19T00:31:43;98510;;;7.3;89.8
51195;BME280;37259;49.972;19.850;2023-02-19T00:32:48;98500;;;7.3;90.1
51195;BME280;37259;49.972;19.850;2023-02-19T00:33:44;98500;;;7.3;90.1
51195;BME280;37259;49.972;19.850;2023-02-19T00:34:43;98500;;;7.3;90.2
51195;BME280;37259;49.972;19.850;2023-02-19T00:35:43;98490;;;7.2;90.3
51195;BME280;37259;49.972;19.850;2023-02-19T00:36:43;98490;;;7.2;90.3
51195;BME280;37259;49.972;19.850;2023-02-19T00:37:43;98500;;;7.2;90.4
51195;BME280;37259;49.972;19.850;2023-02-19T00:38:43;98490;;;7.2;90.5
51195;BME280;37259;49.972;19.850;2023-02-19T00:39:43;98490;;;7.2;90.5
51195;BME280;37259;49.972;19.850;2023-02-19T00:40:43;98490;;;7.2;90.5
51195;BME280;37259;49.972;19.850;2023-02-19T00:41:43;98490;;;7.2;90.6
51195;BME280;37259;49.972;19.850;2023-02-19T00:42:43;98490;;;7.2;90.6
51195;BME280;37259;49.972;19.850;2023-02-19T00:43:44;98490;;;7.1;90.7
51195;BME280;37259;49.972;19.850;2023-02-19T00:44:43;98490;;;7.1;90.7
51195;BME280;37259;49.972;19.850;2023-02-19T00:45:43;98480;;;7.1;90.7
51195;BME280;37259;49.972;19.850;2023-02-19T00:46:44;98480;;;7.1;90.7
51195;BME280;37259;49.972;19.850;2023-02-19T00:47:43;98480;;;7.1;90.8
51195;BME280;37259;49.972;19.850;2023-02-19T00:48:43;98490;;;7.1;90.8
51195;BME280;37259;49.972;19.850;2023-02-19T00:49:43;98490;;;7.1;90.9
51195;BME280;37259;49.972;19.850;2023-02-19T00:50:43;98490;;;7.1;90.8
51195;BME280;37259;49.972;19.850;2023-02-19T00:51:43;98490;;;7.1;90.8
51195;BME280;37259;49.972;19.850;2023-02-19T00:52:43;98490;;;7;91
51195;BME280;37259;49.972;19.850;2023-02-19T00:53:43;98490;;;7;91
51195;BME280;37259;49.972;19.850;2023-02-19T00:54:43;98490;;;7;91
51195;BME280;37259;49.972;19.850;2023-02-19T00:55:43;98480;;;6.9;91
51195;BME280;37259;49.972;19.850;2023-02-19T00:56:43;98480;;;6.9;91
51195;BME280;37259;49.972;19.850;2023-02-19T00:57:43;98490;;;6.9;91
51195;BME280;37259;49.972;19.850;2023-02-19T00:58:44;98480;;;6.9;90.9
51195;BME280;37259;49.972;19.850;2023-02-19T00:59:43;98480;;;6.9;90.9
51195;BME280;37259;49.972;19.850;2023-02-19T01:00:43;98480;;;7;90.7
51195;BME280;37259;49.972;19.850;2023-02-19T01:01:43;98480;;;6.9;90.6
51195;BME280;37259;49.972;19.850;2023-02-19T01:02:43;98480;;;6.9;90.5
51195;BME280;37259;49.972;19.850;2023-02-19T01:03:43;98480;;;6.9;90.4
51195;BME280;37259;49.972;19.850;2023-02-19T01:04:43;98480;;;6.9;90.4
51195;BME280;37259;49.972;19.850;2023-02-19T01:05:43;98480;;;6.9;90.4
51195;BME280;37259;49.972;19.850;2023-02-19T01:06:43;98480;;;6.9;90.4
51195;BME280;37259;49.972;19.850;2023-02-19T01:07:43;98480;;;6.9;90.4
51195;BME280;37259;49.972;19.850;2023-02-19T01:08:43;98470;;;6.9;90.3
51195;BME280;37259;49.972;19.850;2023-02-19T01:09:43;98470;;;6.9;90.3
51195;BME280;37259;49.972;19.850;2023-02-19T01:10:43;98470;;;6.9;90.3
51195;BME280;37259;49.972;19.850;2023-02-19T01:11:43;98470;;;6.9;90.1
51195;BME280;37259;49.972;19.850;2023-02-19T01:12:43;98470;;;6.9;90
51195;BME280;37259;49.972;19.850;2023-02-19T01:13:43;98470;;;6.9;90
51195;BME280;37259;49.972;19.850;2023-02-19T01:14:43;98470;;;6.9;90
51195;BME280;37259;49.972;19.850;2023-02-19T01:15:43;98470;;;6.9;89.9
51195;BME280;37259;49.972;19.850;2023-02-19T01:16:43;98470;;;6.9;89.9
51195;BME280;37259;49.972;19.850;2023-02-19T01:17:43;98470;;;6.9;89.9
51195;BME280;37259;49.972;19.850;2023-02-19T01:18:43;98470;;;6.9;89.9
51195;BME280;37259;49.972;19.850;2023-02-19T01:19:43;98470;;;6.9;89.9
51195;BME280;37259;49.972;19.850;2023-02-19T01:20:43;98460;;;6.9;89.9
51195;BME280;37259;49.972;19.850;2023-02-19T01:21:43;98460;;;6.9;89.9
51195;BME280;37259;49.972;19.850;2023-02-19T01:22:43;98460;;;6.9;89.9
51195;BME280;37259;49.972;19.850;2023-02-19T01:23:43;98460;;;6.9;90
51195;BME280;37259;49.972;19.850;2023-02-19T01:24:43;98460;;;6.9;90
51195;BME280;37259;49.972;19.850;2023-02-19T01:25:43;98460;;;6.9;90
51195;BME280;37259;49.972;19.850;2023-02-19T01:26:43;98460;;;6.9;89.9
51195;BME280;37259;49.972;19.850;2023-02-19T01:27:44;98460;;;6.9;89.9
51195;BME280;37259;49.972;19.850;2023-02-19T01:28:43;98460;;;7;89.9
51195;BME280;37259;49.972;19.850;2023-02-19T01:29:43;98460;;;7;89.9
51195;BME280;37259;49.972;19.850;2023-02-19T01:30:43;98460;;;7;89.9
51195;BME280;37259;49.972;19.850;2023-02-19T01:31:43;98460;;;6.9;90
51195;BME280;37259;49.972;19.850;2023-02-19T01:32:43;98460;;;6.9;90
51195;BME280;37259;49.972;19.850;2023-02-19T01:33:44;98460;;;7;90
51195;BME280;37259;49.972;19.850;2023-02-19T01:34:43;98460;;;7;90
51195;BME280;37259;49.972;19.850;2023-02-19T01:35:43;98460;;;6.9;90.1
51195;BME280;37259;49.972;19.850;2023-02-19T01:36:43;98450;;;6.9;90.1
51195;BME280;37259;49.972;19.850;2023-02-19T01:37:43;98450;;;6.9;90.1
51195;BME280;37259;49.972;19.850;2023-02-19T01:38:44;98450;;;6.9;90.2
51195;BME280;37259;49.972;19.850;2023-02-19T01:39:43;98450;;;7;90.2
51195;BME280;37259;49.972;19.850;2023-02-19T01:40:43;98450;;;7;90.2
51195;BME280;37259;49.972;19.850;2023-02-19T01:41:43;98450;;;7;90.3
51195;BME280;37259;49.972;19.850;2023-02-19T01:42:43;98450;;;7;90.3
51195;BME280;37259;49.972;19.850;2023-02-19T01:43:59;98450;;;7;90.3
51195;BME280;37259;49.972;19.850;2023-02-19T01:45:18;98450;;;7;90.3
51195;BME280;37259;49.972;19.850;2023-02-19T01:45:43;98450;;;6.9;90.5
51195;BME280;37259;49.972;19.850;2023-02-19T01:46:44;98450;;;6.9;90.5
51195;BME280;37259;49.972;19.850;2023-02-19T01:47:43;98450;;;6.9;90.6
51195;BME280;37259;49.972;19.850;2023-02-19T01:48:43;98450;;;6.9;90.6
51195;BME280;37259;49.972;19.850;2023-02-19T01:49:44;98450;;;7;90.7
51195;BME280;37259;49.972;19.850;2023-02-19T01:50:45;98450;;;7;90.7
51195;BME280;37259;49.972;19.850;2023-02-19T01:51:44;98450;;;6.9;90.7
51195;BME280;37259;49.972;19.850;2023-02-19T01:52:43;98450;;;6.9;90.7
51195;BME280;37259;49.972;19.850;2023-02-19T01:53:44;98450;;;6.9;90.7
51195;BME280;37259;49.972;19.850;2023-02-19T01:54:43;98450;;;6.9;90.7
51195;BME280;37259;49.972;19.850;2023-02-19T01:55:44;98440;;;6.9;90.8
51195;BME280;37259;49.972;19.850;2023-02-19T01:56:43;98450;;;6.9;90.8
51195;BME280;37259;49.972;19.850;2023-02-19T01:57:44;98440;;;6.9;90.8
51195;BME280;37259;49.972;19.850;2023-02-19T01:58:43;98440;;;6.9;90.8
51195;BME280;37259;49.972;19.850;2023-02-19T01:59:43;98440;;;6.9;90.8
51195;BME280;37259;49.972;19.850;2023-02-19T02:00:43;98440;;;6.9;90.8
51195;BME280;37259;49.972;19.850;2023-02-19T02:01:43;98440;;;6.9;90.8
51195;BME280;37259;49.972;19.850;2023-02-19T02:02:44;98440;;;6.9;90.8
51195;BME280;37259;49.972;19.850;2023-02-19T02:03:44;98440;;;6.9;90.8
51195;BME280;37259;49.972;19.850;2023-02-19T02:04:43;98440;;;6.9;90.8
51195;BME280;37259;49.972;19.850;2023-02-19T02:05:45;98440;;;6.9;90.8
51195;BME280;37259;49.972;19.850;2023-02-19T02:06:45;98440;;;6.9;90.8
51195;BME280;37259;49.972;19.850;2023-02-19T02:07:43;98440;;;6.9;90.8
51195;BME280;37259;49.972;19.850;2023-02-19T02:08:43;98430;;;6.9;90.8
51195;BME280;37259;49.972;19.850;2023-02-19T02:09:43;98430;;;6.9;90.8
51195;BME280;37259;49.972;19.850;2023-02-19T02:10:43;98430;;;6.9;90.8
51195;BME280;37259;49.972;19.850;2023-02-19T02:11:44;98430;;;6.9;90.8
51195;BME280;37259;49.972;19.850;2023-02-19T02:12:43;98430;;;6.9;90.8
51195;BME280;37259;49.972;19.850;2023-02-19T02:13:43;98430;;;6.9;90.8
51195;BME280;37259;49.972;19.850;2023-02-19T02:14:44;98430;;;6.9;90.9
51195;BME280;37259;49.972;19.850;2023-02-19T02:15:44;98430;;;6.9;90.9
51195;BME280;37259;49.972;19.850;2023-02-19T02:16:46;98430;;;6.9;90.9
51195;BME280;37259;49.972;19.850;2023-02-19T02:17:47;98430;;;6.9;90.9
51195;BME280;37259;49.972;19.850;2023-02-19T02:18:47;98430;;;6.9;90.9
51195;BME280;37259;49.972;19.850;2023-02-19T02:19:50;98420;;;6.9;90.9
51195;BME280;37259;49.972;19.850;2023-02-19T02:20:50;98430;;;6.9;90.9
51195;BME280;37259;49.972;19.850;2023-02-19T02:21:46;98430;;;6.9;90.9
51195;BME280;37259;49.972;19.850;2023-02-19T02:22:45;98430;;;6.9;90.8
51195;BME280;37259;49.972;19.850;2023-02-19T02:23:45;98430;;;6.9;90.8
51195;BME280;37259;49.972;19.850;2023-02-19T02:24:49;98420;;;6.9;90.8
51195;BME280;37259;49.972;19.850;2023-02-19T02:25:51;98420;;;6.9;90.8
51195;BME280;37259;49.972;19.850;2023-02-19T02:26:45;98430;;;6.9;90.8
51195;BME280;37259;49.972;19.850;2023-02-19T02:27:53;98430;;;6.9;90.7
51195;BME280;37259;49.972;19.850;2023-02-19T02:29:05;98430;;;6.9;90.7
51195;BME280;37259;49.972;19.850;2023-02-19T02:30:16;98440;;;7;90.6
51195;BME280;37259;49.972;19.850;2023-02-19T02:30:43;98440;;;7;90.6
51195;BME280;37259;49.972;19.850;2023-02-19T02:31:44;98440;;;7;90.6
51195;BME280;37259;49.972;19.850;2023-02-19T02:32:44;98440;;;7;90.6
51195;BME280;37259;49.972;19.850;2023-02-19T02:33:45;98440;;;6.9;90.6
51195;BME280;37259;49.972;19.850;2023-02-19T02:34:44;98440;;;6.9;90.6
51195;BME280;37259;49.972;19.850;2023-02-19T02:35:44;98430;;;7;90.7
51195;BME280;37259;49.972;19.850;2023-02-19T02:36:44;98430;;;7;90.7
51195;BME280;37259;49.972;19.850;2023-02-19T02:37:43;98430;;;7;90.7
51195;BME280;37259;49.972;19.850;2023-02-19T02:38:44;98430;;;7;90.7
51195;BME280;37259;49.972;19.850;2023-02-19T02:39:43;98430;;;7;90.7
51195;BME280;37259;49.972;19.850;2023-02-19T02:40:43;98430;;;7;90.8
51195;BME280;37259;49.972;19.850;2023-02-19T02:41:47;98430;;;7;90.9
51195;BME280;37259;49.972;19.850;2023-02-19T02:42:43;98430;;;7;90.9
51195;BME280;37259;49.972;19.850;2023-02-19T02:43:43;98430;;;7;91.1
51195;BME280;37259;49.972;19.850;2023-02-19T02:44:43;98420;;;7;91.1
51195;BME280;37259;49.972;19.850;2023-02-19T02:45:43;98420;;;7;91.1
51195;BME280;37259;49.972;19.850;2023-02-19T02:46:43;98430;;;7;91.1
51195;BME280;37259;49.972;19.850;2023-02-19T02:47:45;98420;;;7;91.1
51195;BME280;37259;49.972;19.850;2023-02-19T02:48:44;98420;;;7;91.2
51195;BME280;37259;49.972;19.850;2023-02-19T02:49:43;98420;;;7;91.2
51195;BME280;37259;49.972;19.850;2023-02-19T02:50:45;98420;;;7;91.3
51195;BME280;37259;49.972;19.850;2023-02-19T02:51:44;98420;;;7;91.3
51195;BME280;37259;49.972;19.850;2023-02-19T02:52:43;98420;;;7;91.3
51195;BME280;37259;49.972;19.850;2023-02-19T02:53:44;98420;;;7;91.3
51195;BME280;37259;49.972;19.850;2023-02-19T02:54:43;98420;;;7;91.3
51195;BME280;37259;49.972;19.850;2023-02-19T02:55:44;98410;;;7;91.3
51195;BME280;37259;49.972;19.850;2023-02-19T02:56:43;98410;;;7;91.3
51195;BME280;37259;49.972;19.850;2023-02-19T02:57:43;98410;;;7;91.3
51195;BME280;37259;49.972;19.850;2023-02-19T02:58:43;98410;;;7;91.3
51195;BME280;37259;49.972;19.850;2023-02-19T02:59:43;98410;;;7;91.3
51195;BME280;37259;49.972;19.850;2023-02-19T03:00:44;98410;;;7;91.3
51195;BME280;37259;49.972;19.850;2023-02-19T03:01:44;98410;;;7.1;91.3
51195;BME280;37259;49.972;19.850;2023-02-19T03:02:43;98420;;;7.1;91.2
51195;BME280;37259;49.972;19.850;2023-02-19T03:03:44;98410;;;7.1;91.2
51195;BME280;37259;49.972;19.850;2023-02-19T03:04:46;98410;;;7.1;91.2
51195;BME280;37259;49.972;19.850;2023-02-19T03:05:43;98410;;;7.1;91.1
51195;BME280;37259;49.972;19.850;2023-02-19T03:06:43;98410;;;7.1;91
51195;BME280;37259;49.972;19.850;2023-02-19T03:07:44;98410;;;7.1;91
51195;BME280;37259;49.972;19.850;2023-02-19T03:08:44;98400;;;7.1;91
51195;BME280;37259;49.972;19.850;2023-02-19T03:09:43;98400;;;7.1;91
51195;BME280;37259;49.972;19.850;2023-02-19T03:10:44;98400;;;7;90.9
51195;BME280;37259;49.972;19.850;2023-02-19T03:11:44;98400;;;7;90.9
51195;BME280;37259;49.972;19.850;2023-02-19T03:12:44;98400;;;7;90.8
51195;BME280;37259;49.972;19.850;2023-02-19T03:13:43;98400;;;7;90.8
51195;BME280;37259;49.972;19.850;2023-02-19T03:14:45;98410;;;7.1;90.7
51195;BME280;37259;49.972;19.850;2023-02-19T03:15:44;98410;;;7.1;90.7
51195;BME280;37259;49.972;19.850;2023-02-19T03:16:43;98400;;;7.1;90.6
51195;BME280;37259;49.972;19.850;2023-02-19T03:17:45;98400;;;7.1;90.6
51195;BME280;37259;49.972;19.850;2023-02-19T03:18:44;98400;;;7.1;90.6
51195;BME280;37259;49.972;19.850;2023-02-19T03:19:46;98400;;;7.1;90.6
51195;BME280;37259;49.972;19.850;2023-02-19T03:20:45;98400;;;7.1;90.6
51195;BME280;37259;49.972;19.850;2023-02-19T03:21:44;98400;;;7.1;90.6
51195;BME280;37259;49.972;19.850;2023-02-19T03:22:43;98400;;;7.1;90.6
51195;BME280;37259;49.972;19.850;2023-02-19T03:23:44;98400;;;7.1;90.5
51195;BME280;37259;49.972;19.850;2023-02-19T03:24:44;98400;;;7.1;90.5
51195;BME280;37259;49.972;19.850;2023-02-19T03:25:43;98390;;;7.1;90.5
51195;BME280;37259;49.972;19.850;2023-02-19T03:26:43;98390;;;7.1;90.5
51195;BME280;37259;49.972;19.850;2023-02-19T03:27:44;98390;;;7.1;90.5
51195;BME280;37259;49.972;19.850;2023-02-19T03:28:44;98390;;;7.1;90.5
51195;BME280;37259;49.972;19.850;2023-02-19T03:29:43;98380;;;7.1;90.4
51195;BME280;37259;49.972;19.850;2023-02-19T03:30:45;98380;;;7.1;90.4
51195;BME280;37259;49.972;19.850;2023-02-19T03:31:43;98380;;;7.1;90.4
51195;BME280;37259;49.972;19.850;2023-02-19T03:32:45;98390;;;7.1;90.3
51195;BME280;37259;49.972;19.850;2023-02-19T03:33:44;98380;;;7.1;90.3
51195;BME280;37259;49.972;19.850;2023-02-19T03:34:45;98380;;;7.1;90.3
51195;BME280;37259;49.972;19.850;2023-02-19T03:35:44;98380;;;7.1;90.3
51195;BME280;37259;49.972;19.850;2023-02-19T03:36:45;98380;;;7.1;90.3
51195;BME280;37259;49.972;19.850;2023-02-19T03:37:44;98380;;;7.2;90.3
51195;BME280;37259;49.972;19.850;2023-02-19T03:38:46;98380;;;7.2;90.3
51195;BME280;37259;49.972;19.850;2023-02-19T03:39:43;98380;;;7.2;90.3
51195;BME280;37259;49.972;19.850;2023-02-19T03:40:45;98380;;;7.2;90.3
51195;BME280;37259;49.972;19.850;2023-02-19T03:41:46;98380;;;7.2;90.3
51195;BME280;37259;49.972;19.850;2023-02-19T03:42:46;98380;;;7.2;90.3
51195;BME280;37259;49.972;19.850;2023-02-19T03:43:44;98380;;;7.2;90.3
51195;BME280;37259;49.972;19.850;2023-02-19T03:44:44;98370;;;7.2;90.3
51195;BME280;37259;49.972;19.850;2023-02-19T03:45:45;98370;;;7.2;90.3
51195;BME280;37259;49.972;19.850;2023-02-19T03:46:44;98370;;;7.2;90.3
51195;BME280;37259;49.972;19.850;2023-02-19T03:47:44;98370;;;7.2;90.3
51195;BME280;37259;49.972;19.850;2023-02-19T03:48:45;98370;;;7.2;90.3
51195;BME280;37259;49.972;19.850;2023-02-19T03:49:44;98370;;;7.2;90.3
51195;BME280;37259;49.972;19.850;2023-02-19T03:50:44;98370;;;7.2;90.3
51195;BME280;37259;49.972;19.850;2023-02-19T03:51:44;98370;;;7.2;90.3
51195;BME280;37259;49.972;19.850;2023-02-19T03:52:45;98370;;;7.2;90.4
51195;BME280;37259;49.972;19.850;2023-02-19T03:53:46;98360;;;7.2;90.4
51195;BME280;37259;49.972;19.850;2023-02-19T03:54:46;98360;;;7.2;90.4
51195;BME280;37259;49.972;19.850;2023-02-19T03:55:44;98370;;;7.2;90.5
51195;BME280;37259;49.972;19.850;2023-02-19T03:56:44;98370;;;7.2;90.5
51195;BME280;37259;49.972;19.850;2023-02-19T03:57:44;98370;;;7.1;90.5
51195;BME280;37259;49.972;19.850;2023-02-19T03:58:46;98370;;;7.1;90.6
51195;BME280;37259;49.972;19.850;2023-02-19T03:59:45;98370;;;7.1;90.6
51195;BME280;37259;49.972;19.850;2023-02-19T04:00:44;98360;;;7.1;90.8
51195;BME280;37259;49.972;19.850;2023-02-19T04:01:45;98360;;;7.1;90.8
51195;BME280;37259;49.972;19.850;2023-02-19T04:02:46;98360;;;7.1;90.9
51195;BME280;37259;49.972;19.850;2023-02-19T04:03:44;98370;;;7.1;91
51195;BME280;37259;49.972;19.850;2023-02-19T04:04:44;98370;;;7.1;91
51195;BME280;37259;49.972;19.850;2023-02-19T04:05:44;98370;;;7.1;91
51195;BME280;37259;49.972;19.850;2023-02-19T04:06:44;98360;;;7.2;91
51195;BME280;37259;49.972;19.850;2023-02-19T04:07:44;98360;;;7.2;91
51195;BME280;37259;49.972;19.850;2023-02-19T04:08:45;98360;;;7.2;91
51195;BME280;37259;49.972;19.850;2023-02-19T04:09:44;98360;;;7.2;91
51195;BME280;37259;49.972;19.850;2023-02-19T04:10:43;98370;;;7.2;90.9
51195;BME280;37259;49.972;19.850;2023-02-19T04:11:43;98370;;;7.1;91
51195;BME280;37259;49.972;19.850;2023-02-19T04:12:44;98370;;;7.1;91
51195;BME280;37259;49.972;19.850;2023-02-19T04:13:44;98370;;;7.1;91.1
51195;BME280;37259;49.972;19.850;2023-02-19T04:14:45;98370;;;7.1;91.1
51195;BME280;37259;49.972;19.850;2023-02-19T04:15:43;98370;;;7.1;91.2
51195;BME280;37259;49.972;19.850;2023-02-19T04:16:44;98370;;;7.1;91.2
51195;BME280;37259;49.972;19.850;2023-02-19T04:17:44;98370;;;7.1;91.2
51195;BME280;37259;49.972;19.850;2023-02-19T04:18:43;98370;;;7.1;91.2
51195;BME280;37259;49.972;19.850;2023-02-19T04:19:43;98370;;;7.1;91.3
51195;BME280;37259;49.972;19.850;2023-02-19T04:20:44;98360;;;7.2;91.3
51195;BME280;37259;49.972;19.850;2023-02-19T04:21:43;98360;;;7.2;91.3
51195;BME280;37259;49.972;19.850;2023-02-19T04:22:44;98360;;;7.1;91.3
51195;BME280;37259;49.972;19.850;2023-02-19T04:23:43;98360;;;7.1;91.4
51195;BME280;37259;49.972;19.850;2023-02-19T04:24:45;98360;;;7.1;91.4
51195;BME280;37259;49.972;19.850;2023-02-19T04:25:44;98360;;;7.1;91.5
51195;BME280;37259;49.972;19.850;2023-02-19T04:26:43;98360;;;7.1;91.5
51195;BME280;37259;49.972;19.850;2023-02-19T04:27:43;98360;;;7;91.5
51195;BME280;37259;49.972;19.850;2023-02-19T04:28:43;98360;;;7;91.5
51195;BME280;37259;49.972;19.850;2023-02-19T04:29:43;98350;;;7.1;91.6
51195;BME280;37259;49.972;19.850;2023-02-19T04:30:43;98350;;;7.1;91.6
51195;BME280;37259;49.972;19.850;2023-02-19T04:31:43;98350;;;7.1;91.7
51195;BME280;37259;49.972;19.850;2023-02-19T04:32:44;98350;;;7.1;91.7
51195;BME280;37259;49.972;19.850;2023-02-19T04:33:43;98350;;;7.1;91.7
51195;BME280;37259;49.972;19.850;2023-02-19T04:34:43;98340;;;7.1;91.7
51195;BME280;37259;49.972;19.850;2023-02-19T04:35:43;98330;;;7.1;91.7
51195;BME280;37259;49.972;19.850;2023-02-19T04:36:43;98330;;;7.1;91.7
51195;BME280;37259;49.972;19.850;2023-02-19T04:37:43;98330;;;7.1;91.7
51195;BME280;37259;49.972;19.850;2023-02-19T04:38:43;98330;;;7;91.7
51195;BME280;37259;49.972;19.850;2023-02-19T04:39:43;98330;;;7;91.7
51195;BME280;37259;49.972;19.850;2023-02-19T04:40:43;98330;;;7;91.7
51195;BME280;37259;49.972;19.850;2023-02-19T04:41:43;98330;;;7;91.7
51195;BME280;37259;49.972;19.850;2023-02-19T04:42:43;98330;;;7;91.7
51195;BME280;37259;49.972;19.850;2023-02-19T04:43:43;98330;;;7;91.8
51195;BME280;37259;49.972;19.850;2023-02-19T04:44:43;98330;;;7;91.8
51195;BME280;37259;49.972;19.850;2023-02-19T04:45:43;98330;;;7;91.8
51195;BME280;37259;49.972;19.850;2023-02-19T04:46:43;98330;;;7;91.8
51195;BME280;37259;49.972;19.850;2023-02-19T04:47:43;98330;;;7;91.9
51195;BME280;37259;49.972;19.850;2023-02-19T04:48:43;98330;;;7;91.9
51195;BME280;37259;49.972;19.850;2023-02-19T04:49:43;98330;;;7;91.9
51195;BME280;37259;49.972;19.850;2023-02-19T04:50:43;98330;;;7;91.9
51195;BME280;37259;49.972;19.850;2023-02-19T04:51:43;98330;;;7;91.9
51195;BME280;37259;49.972;19.850;2023-02-19T04:52:44;98330;;;7;91.9
51195;BME280;37259;49.972;19.850;2023-02-19T04:53:43;98330;;;7;91.9
51195;BME280;37259;49.972;19.850;2023-02-19T04:54:43;98330;;;7;91.9
51195;BME280;37259;49.972;19.850;2023-02-19T04:55:43;98340;;;7;91.9
51195;BME280;37259;49.972;19.850;2023-02-19T04:56:43;98330;;;7;91.9
51195;BME280;37259;49.972;19.850;2023-02-19T04:57:43;98330;;;7;91.9
51195;BME280;37259;49.972;19.850;2023-02-19T04:58:43;98340;;;6.9;92
51195;BME280;37259;49.972;19.850;2023-02-19T04:59:44;98340;;;6.9;92
51195;BME280;37259;49.972;19.850;2023-02-19T05:00:43;98340;;;6.9;92.1
51195;BME280;37259;49.972;19.850;2023-02-19T05:01:43;98340;;;6.9;92.1
51195;BME280;37259;49.972;19.850;2023-02-19T05:02:43;98340;;;6.9;92.2
51195;BME280;37259;49.972;19.850;2023-02-19T05:03:43;98340;;;6.9;92.2
51195;BME280;37259;49.972;19.850;2023-02-19T05:04:43;98330;;;6.9;92.2
51195;BME280;37259;49.972;19.850;2023-02-19T05:05:43;98330;;;6.9;92.2
51195;BME280;37259;49.972;19.850;2023-02-19T05:06:43;98330;;;6.9;92.2
51195;BME280;37259;49.972;19.850;2023-02-19T05:07:43;98330;;;6.9;92.3
51195;BME280;37259;49.972;19.850;2023-02-19T05:08:44;98330;;;6.9;92.3
51195;BME280;37259;49.972;19.850;2023-02-19T05:09:44;98330;;;6.9;92.3
51195;BME280;37259;49.972;19.850;2023-02-19T05:10:44;98330;;;6.9;92.3
51195;BME280;37259;49.972;19.850;2023-02-19T05:11:43;98330;;;6.9;92.4
51195;BME280;37259;49.972;19.850;2023-02-19T05:12:43;98330;;;6.9;92.4
51195;BME280;37259;49.972;19.850;2023-02-19T05:13:43;98320;;;6.9;92.4
51195;BME280;37259;49.972;19.850;2023-02-19T05:14:43;98320;;;6.9;92.4
51195;BME280;37259;49.972;19.850;2023-02-19T05:15:52;98320;;;6.9;92.4
51195;BME280;37259;49.972;19.850;2023-02-19T05:16:43;98320;;;6.9;92.4
51195;BME280;37259;49.972;19.850;2023-02-19T05:17:44;98320;;;6.8;92.4
51195;BME280;37259;49.972;19.850;2023-02-19T05:18:44;98320;;;6.8;92.4
51195;BME280;37259;49.972;19.850;2023-02-19T05:19:43;98320;;;6.9;92.4
51195;BME280;37259;49.972;19.850;2023-02-19T05:20:43;98310;;;6.9;92.3
51195;BME280;37259;49.972;19.850;2023-02-19T05:21:43;98310;;;6.9;92.3
51195;BME280;37259;49.972;19.850;2023-02-19T05:22:43;98310;;;6.9;92.3
51195;BME280;37259;49.972;19.850;2023-02-19T05:23:44;98310;;;6.9;92.3
51195;BME280;37259;49.972;19.850;2023-02-19T05:24:43;98310;;;6.9;92.3
51195;BME280;37259;49.972;19.850;2023-02-19T05:25:43;98300;;;6.9;92.2
51195;BME280;37259;49.972;19.850;2023-02-19T05:26:44;98300;;;6.9;92.2
51195;BME280;37259;49.972;19.850;2023-02-19T05:27:43;98300;;;6.8;92.3
51195;BME280;37259;49.972;19.850;2023-02-19T05:28:43;98300;;;6.8;92.3
51195;BME280;37259;49.972;19.850;2023-02-19T05:29:43;98300;;;6.8;92.3
51195;BME280;37259;49.972;19.850;2023-02-19T05:30:44;98300;;;6.8;92.4
51195;BME280;37259;49.972;19.850;2023-02-19T05:31:43;98300;;;6.8;92.4
51195;BME280;37259;49.972;19.850;2023-02-19T05:32:43;98300;;;6.8;92.4
51195;BME280;37259;49.972;19.850;2023-02-19T05:33:43;98290;;;6.8;92.5
51195;BME280;37259;49.972;19.850;2023-02-19T05:34:43;98290;;;6.8;92.5
51195;BME280;37259;49.972;19.850;2023-02-19T05:35:44;98290;;;6.8;92.5
51195;BME280;37259;49.972;19.850;2023-02-19T05:36:44;98290;;;6.8;92.5
51195;BME280;37259;49.972;19.850;2023-02-19T05:37:43;98290;;;6.8;92.5
51195;BME280;37259;49.972;19.850;2023-02-19T05:38:43;98290;;;6.8;92.5
51195;BME280;37259;49.972;19.850;2023-02-19T05:39:44;98290;;;6.9;92.5
51195;BME280;37259;49.972;19.850;2023-02-19T05:40:44;98290;;;6.9;92.5
51195;BME280;37259;49.972;19.850;2023-02-19T05:41:43;98280;;;6.9;92.5
51195;BME280;37259;49.972;19.850;2023-02-19T05:42:43;98280;;;6.9;92.5
51195;BME280;37259;49.972;19.850;2023-02-19T05:43:44;98270;;;6.9;92.6